Time;durP1;ratioP1;P1;durP2;ratioP2;P2;SDS_P1;SDS_P2;PMS_P1;PMS_P2;Temp;Humidity;BMP_temperature;BMP_pressure;BME280_temperature;BME280_humidity;BME280_pressure;Samples;Min_cycle;Max_cycle;Signal;HPM_P1;HPM_P2
2023/07/21 00:01:41;;;;;;;3.53;1.23;;;;;;;15.53;64.80;149979.97;4989107;28;20791;-64
2023/07/21 00:04:07;;;;;;;2.87;1.30;;;;;;;15.54;64.96;149982.47;4986178;28;20605;-63
2023/07/21 00:06:34;;;;;;;2.50;1.30;;;;;;;15.46;64.86;149962.47;4991563;28;20288;-63
2023/07/21 00:09:01;;;;;;;2.83;1.40;;;;;;;15.40;64.95;149948.75;4990932;28;20300;-64
2023/07/21 00:11:27;;;;;;;4.10;1.23;;;;;;;15.40;64.28;149948.75;4989739;28;20240;-64
2023/07/21 00:13:55;;;;;;;4.33;1.43;;;;;;;15.38;64.78;149943.75;4989479;28;20231;-64
2023/07/21 00:16:22;;;;;;;2.50;1.20;;;;;;;15.40;63.85;149948.75;4989150;28;23047;-64
2023/07/21 00:18:49;;;;;;;2.60;1.30;;;;;;;15.45;64.29;149959.97;4989121;28;20229;-64
2023/07/21 00:21:15;;;;;;;3.17;0.90;;;;;;;15.46;64.36;149963.75;4987288;28;20229;-64
2023/07/21 00:23:42;;;;;;;2.53;1.20;;;;;;;15.48;63.93;149967.47;4992054;28;20318;-64
2023/07/21 00:26:08;;;;;;;2.63;1.20;;;;;;;15.48;63.04;149967.47;4986804;28;20240;-63
2023/07/21 00:28:35;;;;;;;2.00;1.50;;;;;;;15.47;64.85;149966.25;4990572;28;20588;-64
2023/07/21 00:31:03;;;;;;;2.97;1.33;;;;;;;15.46;65.36;149963.75;4986251;28;20241;-63
2023/07/21 00:33:30;;;;;;;2.50;1.03;;;;;;;15.47;64.65;149964.97;4984906;28;21278;-63
2023/07/21 00:35:58;;;;;;;2.20;1.43;;;;;;;15.40;64.74;149948.75;4988540;28;20267;-63
2023/07/21 00:38:25;;;;;;;2.03;1.30;;;;;;;15.31;65.31;149926.28;4983368;28;20233;-63
2023/07/21 00:40:51;;;;;;;2.87;1.40;;;;;;;15.27;65.53;149916.28;5001124;28;20232;-66
2023/07/21 00:43:18;;;;;;;2.37;1.27;;;;;;;15.29;66.15;149921.28;4995551;28;20232;-66
2023/07/21 00:45:47;;;;;;;3.87;1.47;;;;;;;15.29;65.55;149922.53;4995091;28;20303;-66
2023/07/21 00:48:17;;;;;;;2.87;1.30;;;;;;;15.22;65.07;149905.06;4992502;28;20256;-66
2023/07/21 00:50:45;;;;;;;1.67;1.30;;;;;;;15.14;66.15;149885.06;4996555;28;20283;-66
2023/07/21 00:53:12;;;;;;;2.00;1.10;;;;;;;15.10;65.95;149876.31;4999404;28;20294;-66
2023/07/21 00:55:41;;;;;;;1.40;1.23;;;;;;;15.07;68.32;149868.81;4992970;28;20658;-66
2023/07/21 00:58:09;;;;;;;1.60;1.23;;;;;;;14.99;67.39;149848.81;4993539;28;20243;-66
2023/07/21 01:00:36;;;;;;;2.10;1.20;;;;;;;14.96;68.14;149842.59;4996098;28;20305;-67
2023/07/21 01:03:04;;;;;;;1.90;1.33;;;;;;;14.91;67.70;149830.13;4988503;28;20228;-66
2023/07/21 01:05:34;;;;;;;2.23;1.50;;;;;;;14.87;68.33;149821.34;4996019;28;20692;-66
2023/07/21 01:08:04;;;;;;;5.03;1.50;;;;;;;14.81;68.59;149805.13;4986293;28;20287;-66
2023/07/21 01:10:33;;;;;;;3.47;1.47;;;;;;;14.78;68.64;149798.91;4990093;28;20229;-66
2023/07/21 01:13:00;;;;;;;1.90;1.33;;;;;;;14.76;70.00;149795.13;4987960;28;20252;-66
2023/07/21 01:15:29;;;;;;;2.13;1.30;;;;;;;14.73;69.28;149787.66;4992649;28;20240;-67
2023/07/21 01:17:58;;;;;;;3.83;1.60;;;;;;;14.71;69.07;149782.66;4991324;28;20232;-66
2023/07/21 01:20:28;;;;;;;3.93;1.50;;;;;;;14.70;68.80;149780.16;4992469;28;20278;-65
2023/07/21 01:23:03;;;;;;;1.63;1.20;;;;;;;14.72;68.62;149783.94;5003268;28;20237;-65
2023/07/21 01:25:34;;;;;;;2.03;1.47;;;;;;;14.68;68.42;149773.88;4995685;28;20233;-67
2023/07/21 01:28:05;;;;;;;2.33;1.10;;;;;;;14.63;70.37;149762.63;5003609;28;20228;-67
2023/07/21 01:30:33;;;;;;;3.17;1.57;;;;;;;14.56;71.93;149746.41;4988009;28;20222;-66
2023/07/21 01:33:01;;;;;;;2.93;1.47;;;;;;;14.59;72.41;149752.63;5002506;28;20244;-66
2023/07/21 01:35:32;;;;;;;5.03;1.30;;;;;;;14.65;71.74;149766.41;4988278;28;20589;-66
2023/07/21 01:38:00;;;;;;;2.43;1.20;;;;;;;14.65;71.46;149766.41;4993571;28;20242;-66
2023/07/21 01:40:28;;;;;;;2.23;1.30;;;;;;;14.58;72.02;149751.41;4991171;28;20622;-66
2023/07/21 01:42:56;;;;;;;2.67;1.40;;;;;;;14.56;71.39;149746.41;4994726;28;20265;-66
2023/07/21 01:45:23;;;;;;;2.23;1.47;;;;;;;14.53;71.56;149738.91;4988836;28;20238;-66
2023/07/21 01:47:49;;;;;;;4.77;1.50;;;;;;;14.53;72.21;149738.91;4995464;28;20233;-66
2023/07/21 01:50:18;;;;;;;2.07;1.40;;;;;;;14.52;73.60;149736.41;4993355;28;20252;-66
2023/07/21 01:52:46;;;;;;;3.03;1.40;;;;;;;14.53;74.02;149737.66;4994205;28;20295;-66
2023/07/21 01:55:19;;;;;;;1.83;1.53;;;;;;;14.57;73.82;149747.63;4993296;28;20236;-66
2023/07/21 01:57:53;;;;;;;2.37;1.50;;;;;;;14.57;74.73;149747.63;5001958;28;20312;-66
2023/07/21 02:00:23;;;;;;;1.90;1.50;;;;;;;14.61;74.76;149758.91;4994250;28;20585;-66
2023/07/21 02:02:52;;;;;;;5.67;1.53;;;;;;;14.56;73.97;149745.13;4994934;28;20688;-66
2023/07/21 02:05:19;;;;;;;5.10;1.53;;;;;;;14.58;73.75;149751.41;4990856;28;20227;-66
2023/07/21 02:07:46;;;;;;;5.03;1.50;;;;;;;14.58;74.35;149751.41;5001597;28;20228;-66
2023/07/21 02:10:13;;;;;;;2.77;1.60;;;;;;;14.56;74.97;149746.41;4984457;28;20275;-66
2023/07/21 02:12:43;;;;;;;2.00;1.43;;;;;;;14.50;75.24;149731.44;4988358;28;20843;-66
2023/07/21 02:15:13;;;;;;;5.90;2.13;;;;;;;14.43;76.03;149713.94;4999255;28;20231;-66
2023/07/21 02:17:42;;;;;;;2.77;1.70;;;;;;;14.43;73.87;149715.16;4999882;28;20354;-67
2023/07/21 02:20:09;;;;;;;2.70;1.53;;;;;;;14.37;74.28;149698.97;4983885;28;20587;-66
2023/07/21 02:22:37;;;;;;;5.63;1.73;;;;;;;14.32;73.93;149688.97;4992810;28;20258;-66
2023/07/21 02:25:05;;;;;;;3.37;1.30;;;;;;;14.31;73.29;149685.22;4987190;28;20228;-66
2023/07/21 02:27:33;;;;;;;2.77;1.53;;;;;;;14.28;73.53;149677.75;4991010;28;20247;-66
2023/07/21 02:30:00;;;;;;;4.33;1.53;;;;;;;14.22;72.63;149664.00;4993842;28;20236;-66
2023/07/21 02:32:28;;;;;;;4.60;1.60;;;;;;;14.23;73.58;149665.28;4989232;28;20276;-66
2023/07/21 02:34:56;;;;;;;2.77;1.50;;;;;;;14.13;74.21;149642.81;4984273;28;20232;-66
2023/07/21 02:37:23;;;;;;;2.90;1.60;;;;;;;14.14;74.97;149644.03;4988447;28;20254;-66
2023/07/21 02:39:49;;;;;;;3.40;1.43;;;;;;;14.07;76.34;149627.81;4992069;28;20771;-66
2023/07/21 02:42:16;;;;;;;2.10;1.30;;;;;;;13.98;76.54;149605.34;4991274;28;20244;-66
2023/07/21 02:44:42;;;;;;;3.93;1.53;;;;;;;13.93;76.15;149594.09;4995677;28;20229;-66
2023/07/21 02:47:09;;;;;;;2.90;1.57;;;;;;;13.97;75.94;149602.84;4998663;28;20230;-67
2023/07/21 02:49:37;;;;;;;2.10;1.30;;;;;;;13.92;73.97;149590.38;5002063;28;20236;-66
2023/07/21 02:52:07;;;;;;;2.73;1.30;;;;;;;13.90;75.66;149585.38;4985567;28;20274;-66
2023/07/21 02:54:33;;;;;;;3.80;1.17;;;;;;;13.85;76.90;149574.13;4992975;28;20239;-66
2023/07/21 02:57:00;;;;;;;1.97;1.23;;;;;;;13.78;74.78;149556.69;4989075;28;20258;-66
2023/07/21 02:59:28;;;;;;;3.47;1.47;;;;;;;13.75;74.32;149550.44;4990936;28;20886;-66
2023/07/21 03:04:37;;;;;;;2.63;1.47;;;;;;;13.81;75.64;149565.41;5264228;23;20243;-67
2023/07/21 03:07:06;;;;;;;1.70;1.37;;;;;;;13.80;76.05;149561.63;4958129;28;20312;-66
2023/07/21 03:09:33;;;;;;;3.23;1.30;;;;;;;13.87;74.64;149580.38;4964484;28;20233;-66
2023/07/21 03:12:00;;;;;;;3.37;1.60;;;;;;;13.87;75.34;149579.13;4964646;28;20236;-66
2023/07/21 03:14:41;;;;;;;4.20;1.30;;;;;;;13.80;75.15;149562.91;4961679;28;20259;-66
2023/07/21 03:17:08;;;;;;;3.33;1.60;;;;;;;13.76;75.47;149551.69;4961370;28;20232;-66
2023/07/21 03:19:34;;;;;;;2.47;1.30;;;;;;;13.77;74.38;149554.19;4965963;28;20233;-66
2023/07/21 03:22:07;;;;;;;2.87;1.40;;;;;;;13.95;71.49;149597.88;4961606;28;20221;-66
2023/07/21 03:24:37;;;;;;;1.33;1.23;;;;;;;13.91;73.11;149587.88;4963918;28;20246;-66
2023/07/21 03:27:05;;;;;;;4.83;1.23;;;;;;;13.87;74.57;149579.13;4953168;28;20579;-66
2023/07/21 03:29:35;;;;;;;3.07;1.50;;;;;;;13.88;74.13;149581.59;4980206;28;20232;-66
2023/07/21 03:32:02;;;;;;;3.00;1.30;;;;;;;13.93;74.64;149594.09;5216052;23;20245;-66
2023/07/21 03:34:29;;;;;;;1.90;1.40;;;;;;;13.86;73.82;149577.88;4959643;28;20244;-66
2023/07/21 03:36:55;;;;;;;3.53;1.40;;;;;;;13.82;73.18;149566.63;4944858;28;20255;-66
2023/07/21 03:39:23;;;;;;;4.00;1.20;;;;;;;13.82;75.24;149567.91;4949772;28;20244;-66
2023/07/21 03:41:52;;;;;;;2.07;1.30;;;;;;;13.77;75.43;149554.19;4954908;28;20573;-66
2023/07/21 03:44:19;;;;;;;2.60;1.43;;;;;;;13.69;74.64;149536.72;4946800;28;20233;-66
2023/07/21 03:47:11;;;;;;;2.60;1.33;;;;;;;13.65;75.05;149525.47;4950645;28;20316;-66
2023/07/21 03:49:43;;;;;;;2.67;1.50;;;;;;;13.63;74.96;149521.75;4961147;28;20237;-66
2023/07/21 03:52:11;;;;;;;4.50;1.63;;;;;;;13.64;75.73;149522.97;4944530;28;20740;-66
2023/07/21 03:54:40;;;;;;;3.03;1.40;;;;;;;13.61;75.81;149515.50;4956992;28;20234;-66
2023/07/21 03:57:07;;;;;;;3.50;1.60;;;;;;;13.61;77.04;149515.50;4963211;28;20236;-66
2023/07/21 03:59:34;;;;;;;2.33;1.50;;;;;;;13.71;74.31;149540.44;4964717;28;20247;-66
2023/07/21 04:02:00;;;;;;;5.10;1.70;;;;;;;13.76;74.84;149551.69;4965316;28;20248;-66
2023/07/21 04:04:32;;;;;;;4.87;1.33;;;;;;;13.74;75.80;149547.94;4961506;28;20240;-66
2023/07/21 04:07:00;;;;;;;2.97;1.50;;;;;;;13.75;76.21;149549.22;4956830;28;20279;-67
2023/07/21 04:09:26;;;;;;;2.23;1.33;;;;;;;13.78;77.49;149557.91;4962144;28;20236;-66
2023/07/21 04:11:54;;;;;;;3.43;1.60;;;;;;;13.80;77.80;149561.63;4965762;28;20610;-66
2023/07/21 04:14:21;;;;;;;1.40;1.10;;;;;;;13.80;76.81;149562.91;4948663;28;20256;-66
2023/07/21 04:16:53;;;;;;;5.83;1.40;;;;;;;13.84;77.19;149571.63;4972693;28;20244;-66
2023/07/21 04:19:20;;;;;;;2.10;1.30;;;;;;;13.85;78.20;149575.41;4952543;28;20261;-66
2023/07/21 04:21:54;;;;;;;2.93;1.47;;;;;;;13.95;75.80;149599.09;4964980;28;20745;-66
2023/07/21 04:24:21;;;;;;;2.57;1.50;;;;;;;14.01;75.71;149612.84;4958007;28;20679;-66
2023/07/21 04:26:54;;;;;;;2.07;1.30;;;;;;;14.11;75.05;149636.53;4953994;28;20259;-66
2023/07/21 04:29:21;;;;;;;3.57;1.30;;;;;;;14.22;74.96;149662.78;4953166;28;20322;-66
2023/07/21 04:31:53;;;;;;;2.10;1.40;;;;;;;14.29;75.61;149681.47;4954409;28;20236;-66
2023/07/21 04:34:20;;;;;;;4.53;1.67;;;;;;;14.39;77.05;149705.19;4959962;28;20584;-66
2023/07/21 04:36:53;;;;;;;1.47;1.30;;;;;;;14.37;77.65;149700.19;4957198;28;20316;-66
2023/07/21 04:39:40;;;;;;;3.47;1.40;;;;;;;14.38;77.19;149701.47;4955375;28;20307;-66
2023/07/21 04:42:09;;;;;;;1.27;1.17;;;;;;;14.38;77.93;149702.69;4956070;28;20248;-66
2023/07/21 04:44:35;;;;;;;3.13;1.80;;;;;;;14.41;75.67;149708.94;4964612;28;21104;-66
2023/07/21 04:47:04;;;;;;;1.77;1.43;;;;;;;14.49;77.60;149728.94;4963473;28;20724;-66
2023/07/21 04:49:36;;;;;;;1.80;1.40;;;;;;;14.52;76.75;149735.16;4957406;28;20236;-66
2023/07/21 04:52:04;;;;;;;3.07;1.50;;;;;;;14.58;75.75;149751.41;4959957;28;20628;-66
2023/07/21 04:54:30;;;;;;;2.20;1.50;;;;;;;14.67;76.26;149772.63;4951870;28;20561;-66
2023/07/21 04:56:57;;;;;;;2.17;1.13;;;;;;;14.81;75.28;149805.13;4959120;28;20242;-66
2023/07/21 04:59:25;;;;;;;2.93;1.60;;;;;;;14.87;77.60;149821.34;4962639;28;20238;-66
2023/07/21 05:01:52;;;;;;;5.27;1.70;;;;;;;15.02;77.84;149856.31;4954572;28;20285;-66
2023/07/21 05:04:19;;;;;;;2.53;1.50;;;;;;;15.08;75.87;149870.09;4950872;28;20296;-67
2023/07/21 05:06:50;;;;;;;2.47;1.60;;;;;;;15.14;74.90;149886.31;4972800;28;20233;-66
2023/07/21 05:09:19;;;;;;;3.87;1.50;;;;;;;15.18;75.07;149896.28;4961739;28;20707;-66
2023/07/21 05:12:11;;;;;;;4.43;1.57;;;;;;;15.19;70.89;149898.78;4951008;28;20267;-66
2023/07/21 05:15:02;;;;;;;2.20;1.40;;;;;;;15.25;74.22;149911.28;4958060;28;20237;-66
2023/07/21 05:17:45;;;;;;;4.63;1.57;;;;;;;15.29;75.95;149921.28;4950864;28;20353;-67
2023/07/21 05:20:32;;;;;;;2.73;1.70;;;;;;;15.29;77.86;149922.53;4954138;28;20713;-66
2023/07/21 05:23:11;;;;;;;2.43;1.47;;;;;;;15.36;77.92;149938.78;4954368;28;20245;-66
2023/07/21 05:25:41;;;;;;;2.10;1.50;;;;;;;15.36;78.90;149938.78;4954332;28;20223;-67
2023/07/21 05:28:08;;;;;;;2.20;1.33;;;;;;;15.43;78.43;149956.25;4956860;28;20226;-67
2023/07/21 05:30:41;;;;;;;5.23;1.93;;;;;;;15.43;76.26;149954.97;4964542;28;20234;-66
2023/07/21 05:33:09;;;;;;;2.87;1.30;;;;;;;15.52;74.89;149976.25;4961691;28;20720;-66
2023/07/21 05:35:35;;;;;;;2.60;1.77;;;;;;;15.64;74.19;150006.25;4957604;28;20257;-66
2023/07/21 05:38:13;;;;;;;3.50;1.30;;;;;;;15.62;74.00;150002.47;4950308;28;20300;-66
2023/07/21 05:40:40;;;;;;;3.30;1.70;;;;;;;15.67;72.78;150012.47;4962307;28;20285;-66
2023/07/21 05:43:07;;;;;;;3.10;1.60;;;;;;;15.78;73.08;150039.94;4954050;28;20386;-66
2023/07/21 05:45:39;;;;;;;3.00;1.53;;;;;;;15.82;73.89;150048.72;4958220;28;20235;-66
2023/07/21 05:48:09;;;;;;;2.70;1.57;;;;;;;15.89;73.96;150067.50;4959521;28;20242;-66
2023/07/21 05:50:39;;;;;;;3.10;1.63;;;;;;;16.00;72.07;150093.72;4954664;28;20241;-66
2023/07/21 05:53:08;;;;;;;1.83;1.43;;;;;;;16.19;71.29;150140.00;4948942;28;20235;-67
2023/07/21 05:55:35;;;;;;;3.50;1.50;;;;;;;16.38;70.84;150185.00;4962541;28;20616;-66
2023/07/21 05:58:01;;;;;;;2.13;1.57;;;;;;;16.66;71.13;150252.47;4962855;28;20242;-66
2023/07/21 06:00:28;;;;;;;2.53;1.43;;;;;;;17.10;70.10;150358.78;4951693;28;20234;-66
2023/07/21 06:03:00;;;;;;;3.20;1.43;;;;;;;17.53;66.75;150463.84;4953917;28;20576;-66
2023/07/21 06:05:27;;;;;;;3.13;1.53;;;;;;;17.84;63.98;150538.91;4960116;28;20244;-66
2023/07/21 06:08:34;;;;;;;2.10;1.47;;;;;;;18.28;64.57;150645.28;4893556;29;20238;-66
2023/07/21 06:11:21;;;;;;;3.20;1.53;;;;;;;18.59;65.28;150719.13;4892308;29;20238;-66
2023/07/21 06:13:55;;;;;;;3.73;1.60;;;;;;;18.76;65.89;150760.41;4934919;28;20303;-66
2023/07/21 06:16:38;;;;;;;1.93;1.60;;;;;;;18.79;56.60;150766.69;4955728;28;20280;-66
2023/07/21 06:19:06;;;;;;;4.93;1.67;;;;;;;19.11;55.79;150844.31;4959470;28;20806;-66
2023/07/21 06:21:33;;;;;;;4.63;1.70;;;;;;;19.30;55.33;150890.66;4961549;28;20243;-66
2023/07/21 06:24:00;;;;;;;3.73;1.67;;;;;;;19.55;54.16;150952.00;4962410;28;20661;-66
2023/07/21 06:26:27;;;;;;;6.17;1.70;;;;;;;19.71;57.72;150989.59;4951724;28;20228;-66
2023/07/21 06:28:54;;;;;;;4.00;1.63;;;;;;;19.93;56.26;151042.25;4958385;28;20254;-66
2023/07/21 06:31:23;;;;;;;4.80;1.50;;;;;;;20.24;55.99;151117.38;4951804;28;20313;-67
2023/07/21 06:34:04;;;;;;;2.20;1.40;;;;;;;20.49;56.07;151180.00;4960063;28;20242;-66
2023/07/21 06:36:46;;;;;;;4.70;1.40;;;;;;;20.86;54.12;151269.03;4953333;28;20593;-66
2023/07/21 06:39:33;;;;;;;3.23;1.37;;;;;;;21.30;50.67;151374.31;4919974;28;20260;-66
2023/07/21 06:42:08;;;;;;;6.53;1.40;;;;;;;21.64;47.36;151457.09;4959384;28;20246;-66
2023/07/21 06:44:43;;;;;;;2.40;1.50;;;;;;;21.55;47.34;151435.72;4960899;28;20318;-66
2023/07/21 06:47:21;;;;;;;2.73;1.60;;;;;;;21.51;47.79;151425.69;4958841;28;20239;-66
2023/07/21 06:50:23;;;;;;;2.60;1.50;;;;;;;21.51;46.44;151426.97;4934169;28;20250;-66
2023/07/21 06:52:54;;;;;;;4.30;1.30;;;;;;;21.66;49.26;151462.13;4956737;28;20298;-66
2023/07/21 06:55:23;;;;;;;7.57;1.50;;;;;;;21.82;46.47;151500.97;4947043;28;20244;-66
2023/07/21 06:57:49;;;;;;;3.87;1.63;;;;;;;21.68;45.98;151468.38;4956000;28;20738;-66
2023/07/21 07:00:16;;;;;;;3.47;1.40;;;;;;;21.56;46.61;151438.22;4952850;28;20838;-66
2023/07/21 07:02:47;;;;;;;2.33;1.40;;;;;;;21.78;46.22;151492.16;4956272;28;20228;-67
2023/07/21 07:05:15;;;;;;;5.73;1.67;;;;;;;22.33;45.91;151623.84;4956458;28;20232;-66
2023/07/21 07:07:41;;;;;;;2.60;1.53;;;;;;;22.44;45.35;151650.19;4949979;28;20240;-66
2023/07/21 07:10:10;;;;;;;2.07;1.47;;;;;;;22.72;45.10;151718.00;4949174;28;20235;-66
2023/07/21 07:12:37;;;;;;;3.57;1.30;;;;;;;22.49;44.01;151664.03;4953075;28;20238;-66
2023/07/21 07:15:04;;;;;;;3.57;1.50;;;;;;;22.66;45.74;151704.16;4944029;28;20235;-66
2023/07/21 07:17:31;;;;;;;2.83;1.80;;;;;;;22.79;44.25;151736.78;4951998;28;20234;-67
2023/07/21 07:19:58;;;;;;;2.53;1.37;;;;;;;22.84;44.00;151748.06;4954692;28;20248;-67
2023/07/21 07:22:25;;;;;;;3.23;1.43;;;;;;;22.95;42.95;151775.66;4960734;28;20244;-68
2023/07/21 07:24:52;;;;;;;4.27;1.73;;;;;;;23.10;43.91;151810.78;4955094;28;20305;-67
2023/07/21 07:27:20;;;;;;;10.53;1.67;;;;;;;22.56;44.19;151681.59;4959132;28;20267;-67
2023/07/21 07:29:46;;;;;;;4.57;1.50;;;;;;;22.77;45.84;151731.78;4964738;28;20596;-67
2023/07/21 07:32:15;;;;;;;4.43;1.50;;;;;;;22.72;45.91;151718.00;4953971;28;20816;-67
2023/07/21 07:34:42;;;;;;;3.13;1.60;;;;;;;22.66;45.88;151705.44;4958863;28;20267;-67
2023/07/21 07:37:08;;;;;;;3.30;1.47;;;;;;;22.65;46.28;151702.94;4962153;28;20261;-67
2023/07/21 07:39:35;;;;;;;4.80;1.27;;;;;;;22.66;47.67;151705.44;4959463;28;20237;-67
2023/07/21 07:42:01;;;;;;;3.43;1.30;;;;;;;22.61;45.99;151692.91;4958312;28;20262;-67
2023/07/21 07:44:29;;;;;;;3.60;1.20;;;;;;;22.50;45.93;151665.28;4957494;28;20245;-67
2023/07/21 07:46:56;;;;;;;4.33;1.13;;;;;;;22.51;45.87;151669.03;4950902;28;20229;-67
2023/07/21 07:49:23;;;;;;;2.97;1.47;;;;;;;22.69;44.68;151712.97;4953331;28;20288;-67
2023/07/21 07:51:53;;;;;;;2.27;1.10;;;;;;;23.14;44.19;151820.81;4958996;28;20252;-67
2023/07/21 07:54:20;;;;;;;2.63;1.20;;;;;;;23.43;41.30;151892.38;4962896;28;20293;-67
2023/07/21 07:57:11;;;;;;;4.43;1.17;;;;;;;23.67;40.33;151948.88;4951368;28;20257;-67
2023/07/21 07:59:39;;;;;;;2.20;1.37;;;;;;;23.81;39.79;151984.03;4962760;28;20299;-67
2023/07/21 08:02:06;;;;;;;5.03;1.10;;;;;;;23.78;39.22;151976.50;4949418;28;20249;-67
2023/07/21 08:04:33;;;;;;;1.53;1.00;;;;;;;23.89;34.39;152004.06;4957244;28;20231;-67
2023/07/21 08:06:59;;;;;;;1.40;0.97;;;;;;;23.99;34.67;152028.00;4957807;28;20234;-67
2023/07/21 08:09:26;;;;;;;1.60;1.00;;;;;;;23.89;35.54;152004.06;4954608;28;20701;-67
2023/07/21 08:11:53;;;;;;;1.57;0.90;;;;;;;23.82;35.47;151986.56;4954809;28;20245;-67
2023/07/21 08:14:19;;;;;;;1.30;1.07;;;;;;;24.08;36.74;152049.31;4948367;28;20298;-67
2023/07/21 08:16:51;;;;;;;1.87;0.90;;;;;;;24.33;35.55;152109.59;4949692;28;20231;-67
2023/07/21 08:19:18;;;;;;;1.63;1.07;;;;;;;24.38;33.87;152122.16;4955639;28;20229;-67
2023/07/21 08:21:47;;;;;;;1.60;1.00;;;;;;;24.29;33.09;152100.81;4957828;28;20227;-67
2023/07/21 08:24:14;;;;;;;1.53;1.00;;;;;;;24.00;33.95;152030.50;4955833;28;20231;-67
2023/07/21 08:26:41;;;;;;;1.87;1.03;;;;;;;23.68;35.49;151951.41;4954972;28;20233;-67
2023/07/21 08:29:09;;;;;;;2.10;0.87;;;;;;;23.37;36.13;151877.31;4950909;28;20244;-67
2023/07/21 08:31:35;;;;;;;1.30;1.00;;;;;;;23.19;35.19;151832.16;4954521;28;20249;-67
2023/07/21 08:34:03;;;;;;;2.47;1.30;;;;;;;22.88;35.79;151758.09;4952757;28;20241;-67
2023/07/21 08:36:30;;;;;;;1.30;1.10;;;;;;;22.81;36.20;151741.81;4960338;28;20315;-67
2023/07/21 08:38:56;;;;;;;3.03;1.13;;;;;;;22.71;37.96;151716.72;4952912;28;20261;-67
2023/07/21 08:41:23;;;;;;;2.60;1.10;;;;;;;22.87;36.76;151755.59;4952499;28;20238;-67
2023/07/21 08:43:50;;;;;;;1.40;0.93;;;;;;;23.14;36.89;151820.81;4955869;28;20868;-68
2023/07/21 08:46:17;;;;;;;4.13;1.20;;;;;;;23.32;36.50;151863.53;4956077;28;20296;-67
2023/07/21 08:48:44;;;;;;;4.47;1.37;;;;;;;23.21;36.63;151837.16;4957789;28;20298;-67
2023/07/21 08:51:12;;;;;;;3.33;1.30;;;;;;;23.37;38.01;151876.09;4949991;28;20230;-67
2023/07/21 08:53:40;;;;;;;2.20;1.13;;;;;;;23.38;36.02;151879.84;4958715;28;20244;-67
2023/07/21 08:56:06;;;;;;;2.00;1.07;;;;;;;23.20;35.45;151835.88;4955510;28;20239;-67
2023/07/21 08:58:33;;;;;;;2.43;1.40;;;;;;;23.49;35.88;151904.94;4954679;28;20254;-67
2023/07/21 09:00:59;;;;;;;2.67;0.97;;;;;;;23.86;36.12;151995.31;4954672;28;20249;-68
2023/07/21 09:03:28;;;;;;;3.27;1.27;;;;;;;23.98;36.17;152025.44;4955427;28;20232;-67
2023/07/21 09:05:57;;;;;;;2.43;1.20;;;;;;;24.20;34.44;152076.94;4958540;28;20227;-67
2023/07/21 09:08:28;;;;;;;2.27;1.33;;;;;;;24.37;36.10;152119.63;4952623;28;20242;-67
2023/07/21 09:10:58;;;;;;;3.63;1.43;;;;;;;24.33;35.05;152109.59;4960900;28;20238;-67
2023/07/21 09:13:25;;;;;;;1.63;1.13;;;;;;;24.06;35.55;152043.06;4953714;28;20314;-67
2023/07/21 09:15:54;;;;;;;4.03;1.20;;;;;;;23.59;35.61;151930.03;4952344;28;20236;-67
2023/07/21 09:18:25;;;;;;;3.70;1.33;;;;;;;23.79;35.33;151979.03;4951301;28;20283;-67
2023/07/21 09:20:52;;;;;;;3.27;1.40;;;;;;;23.72;36.26;151962.69;4957656;28;20233;-67
2023/07/21 09:23:20;;;;;;;3.53;1.30;;;;;;;23.36;36.26;151873.59;4951085;28;20241;-67
2023/07/21 09:25:53;;;;;;;5.40;1.50;;;;;;;23.10;36.39;151810.78;4960203;28;20727;-67
2023/07/21 09:28:20;;;;;;;2.67;1.20;;;;;;;23.24;36.40;151844.75;4952384;28;20247;-67
2023/07/21 09:30:51;;;;;;;2.93;1.43;;;;;;;23.11;35.48;151813.31;4955689;28;20236;-67
2023/07/21 09:33:22;;;;;;;3.87;1.70;;;;;;;23.08;36.46;151805.78;4952997;28;20237;-67
2023/07/21 09:35:49;;;;;;;2.00;1.30;;;;;;;23.05;36.27;151799.53;4956549;28;20238;-67
2023/07/21 09:38:16;;;;;;;1.50;1.23;;;;;;;23.21;36.78;151837.16;4954316;28;20643;-67
2023/07/21 09:40:43;;;;;;;2.03;1.00;;;;;;;23.67;35.04;151948.88;4956010;28;20237;-66
2023/07/21 09:43:11;;;;;;;1.80;1.47;;;;;;;23.87;35.07;151999.06;4953259;28;20822;-66
2023/07/21 09:45:38;;;;;;;4.07;1.40;;;;;;;24.13;37.28;152060.66;4950497;28;20225;-66
2023/07/21 09:48:05;;;;;;;2.50;1.40;;;;;;;24.27;36.31;152094.53;4950066;28;20736;-67
2023/07/21 09:50:32;;;;;;;3.53;1.60;;;;;;;24.36;35.12;152115.88;4951248;28;20225;-66
2023/07/21 09:52:58;;;;;;;2.83;1.10;;;;;;;24.27;36.66;152094.53;4956044;28;20292;-66
2023/07/21 09:55:30;;;;;;;3.57;1.20;;;;;;;23.96;36.27;152019.13;4950192;28;20245;-66
2023/07/21 09:57:57;;;;;;;2.37;1.17;;;;;;;24.00;36.59;152030.50;4954404;28;20532;-62
2023/07/21 10:00:28;;;;;;;2.07;1.30;;;;;;;23.86;37.09;151995.31;4953537;28;20236;-65
2023/07/21 10:02:54;;;;;;;4.67;1.27;;;;;;;23.95;37.16;152016.63;4957791;28;20316;-66
2023/07/21 10:05:21;;;;;;;1.63;1.10;;;;;;;24.01;38.36;152031.75;4952761;28;20286;-66
2023/07/21 10:07:50;;;;;;;2.43;1.43;;;;;;;23.83;36.76;151989.06;4956667;28;20224;-66
2023/07/21 10:10:18;;;;;;;1.83;1.30;;;;;;;23.95;36.10;152016.63;4952513;28;20236;-66
2023/07/21 10:12:49;;;;;;;3.83;1.63;;;;;;;23.91;37.50;152006.59;4958307;28;20249;-66
2023/07/21 10:15:17;;;;;;;1.90;1.17;;;;;;;23.97;36.78;152021.66;4955839;28;20784;-66
2023/07/21 10:17:56;;;;;;;1.60;1.20;;;;;;;24.03;35.97;152038.03;4955333;28;21123;-66
2023/07/21 10:20:37;;;;;;;3.43;1.50;;;;;;;24.14;36.05;152063.16;4953484;28;20244;-66
2023/07/21 10:23:04;;;;;;;2.40;1.47;;;;;;;24.08;37.44;152048.09;4950816;28;20321;-66
2023/07/21 10:25:53;;;;;;;2.33;1.30;;;;;;;24.52;37.42;152156.03;4955447;28;20238;-66
2023/07/21 10:28:23;;;;;;;3.37;1.23;;;;;;;24.46;35.67;152142.22;4953115;28;20626;-65
2023/07/21 10:30:50;;;;;;;2.20;1.30;;;;;;;24.83;35.16;152231.44;4949444;28;20593;-67
2023/07/21 10:33:20;;;;;;;2.17;1.47;;;;;;;24.98;35.49;152266.59;4955618;28;20595;-66
2023/07/21 10:35:47;;;;;;;2.27;1.37;;;;;;;25.14;38.72;152305.50;4955275;28;20232;-67
2023/07/21 10:38:22;;;;;;;3.70;1.47;;;;;;;25.64;33.63;152428.69;4951192;28;20234;-66
2023/07/21 10:40:48;;;;;;;5.03;1.50;;;;;;;25.50;34.80;152393.50;4955730;28;20238;-66
2023/07/21 10:43:15;;;;;;;2.73;1.57;;;;;;;25.86;34.72;152480.19;4946416;28;20569;-66
2023/07/21 10:45:42;;;;;;;3.30;1.52;;;;;;;26.60;33.48;152659.94;4951654;28;20228;-67
2023/07/21 10:48:11;;;;;;;2.10;1.30;;;;;;;27.07;34.43;152774.34;4947499;28;20289;-66
2023/07/21 10:50:40;;;;;;;1.80;1.17;;;;;;;27.01;31.54;152759.28;4954549;28;20596;-66
2023/07/21 10:53:07;;;;;;;1.83;1.20;;;;;;;27.54;30.97;152888.81;4943167;28;20232;-66
2023/07/21 10:55:37;;;;;;;4.07;1.33;;;;;;;27.03;32.31;152765.53;4945236;28;20228;-67
2023/07/21 10:58:04;;;;;;;2.95;1.80;;;;;;;27.37;32.01;152847.28;4948826;28;20373;-66
2023/07/21 11:00:31;;;;;;;1.60;1.10;;;;;;;27.62;33.23;152907.66;4945367;28;20248;-68
2023/07/21 11:02:57;;;;;;;2.40;1.42;;;;;;;27.76;30.84;152942.88;4947831;28;20231;-67
2023/07/21 11:05:26;;;;;;;2.53;1.60;;;;;;;27.81;32.98;152955.44;4944848;28;20338;-67
2023/07/21 11:07:53;;;;;;;1.77;1.20;;;;;;;27.75;32.40;152940.34;4949372;28;20231;-67
2023/07/21 11:10:38;;;;;;;2.63;1.40;;;;;;;27.48;31.60;152873.69;4944669;28;20236;-67
2023/07/21 11:13:08;;;;;;;3.67;1.52;;;;;;;27.53;31.29;152887.59;4910860;28;20232;-67
2023/07/21 11:15:38;;;;;;;3.75;1.30;;;;;;;27.38;31.26;152851.03;4933800;28;20295;-67
2023/07/21 11:18:06;;;;;;;1.83;1.35;;;;;;;27.55;31.09;152891.34;4924716;28;20235;-67
2023/07/21 11:20:37;;;;;;;2.15;1.17;;;;;;;27.34;30.66;152839.75;4942854;28;20324;-67
2023/07/21 11:23:08;;;;;;;2.45;1.17;;;;;;;26.86;33.28;152724.06;4916742;28;20256;-67
2023/07/21 11:25:43;;;;;;;6.85;1.35;;;;;;;26.66;31.85;152675.00;4918706;28;20235;-67
2023/07/21 11:28:22;;;;;;;4.13;1.45;;;;;;;26.28;32.41;152582.00;4923155;28;20234;-67
2023/07/21 11:30:54;;;;;;;2.67;1.30;;;;;;;25.71;34.22;152443.75;4915753;28;20230;-68
2023/07/21 11:33:40;;;;;;;1.60;1.30;;;;;;;25.55;37.09;152404.78;4895729;28;20229;-67
2023/07/21 11:36:18;;;;;;;3.17;1.37;;;;;;;25.17;35.85;152313.03;4877473;28;20558;-68
2023/07/21 11:39:04;;;;;;;3.07;1.40;;;;;;;25.01;35.42;152274.13;4928390;28;20627;-67